createdAt,value
2019-05-03T00:00:31.927Z,1003.71
2019-05-03T00:01:32.168Z,1003.71
2019-05-03T00:02:32.182Z,1003.74
2019-05-03T00:03:32.003Z,1003.73
2019-05-03T00:04:31.589Z,1003.74
2019-05-03T00:05:32.316Z,1003.74
2019-05-03T00:06:32.003Z,1003.76
2019-05-03T00:07:31.717Z,1003.70
2019-05-03T00:08:30.184Z,1003.72
2019-05-03T00:09:31.934Z,1003.72
2019-05-03T00:10:31.770Z,1003.71
2019-05-03T00:11:30.125Z,1003.71
2019-05-03T00:12:30.108Z,1003.71
2019-05-03T00:13:30.087Z,1003.70
2019-05-03T00:14:30.067Z,1003.70
2019-05-03T00:15:32.225Z,1003.70
2019-05-03T00:16:30.028Z,1003.75
2019-05-03T00:17:30.033Z,1003.71
2019-05-03T00:18:29.989Z,1003.74
2019-05-03T00:19:29.971Z,1003.73
2019-05-03T00:20:29.955Z,1003.76
2019-05-03T00:21:29.971Z,1003.72
2019-05-03T00:22:29.913Z,1003.78
2019-05-03T00:23:29.896Z,1003.76
2019-05-03T00:24:31.920Z,1003.74
2019-05-03T00:25:29.853Z,1003.77
2019-05-03T00:26:31.710Z,1003.73
2019-05-03T00:27:29.817Z,1003.73
2019-05-03T00:28:29.798Z,1003.78
2019-05-03T00:29:29.777Z,1003.73
2019-05-03T00:30:31.840Z,1003.77
2019-05-03T00:31:31.778Z,1003.79
2019-05-03T00:32:29.722Z,1003.78
2019-05-03T00:33:31.670Z,1003.79
2019-05-03T00:34:29.680Z,1003.81
2019-05-03T00:35:29.661Z,1003.79
2019-05-03T00:36:29.645Z,1003.80
2019-05-03T00:37:29.625Z,1003.78
2019-05-03T00:38:29.604Z,1003.80
2019-05-03T00:39:29.585Z,1003.77
2019-05-03T00:40:29.567Z,1003.77
2019-05-03T00:41:29.548Z,1003.74
2019-05-03T00:42:29.526Z,1003.73
2019-05-03T00:43:29.509Z,1003.74
2019-05-03T00:44:31.594Z,1003.72
2019-05-03T00:45:31.497Z,1003.70
2019-05-03T00:46:29.449Z,1003.68
2019-05-03T00:47:29.429Z,1003.69
2019-05-03T00:48:29.410Z,1003.71
2019-05-03T00:49:29.390Z,1003.74
2019-05-03T00:50:29.371Z,1003.71
2019-05-03T00:51:29.352Z,1003.72
2019-05-03T00:52:29.334Z,1003.72
2019-05-03T00:53:29.313Z,1003.73
2019-05-03T00:54:29.298Z,1003.75
2019-05-03T00:55:29.276Z,1003.71
2019-05-03T00:56:29.256Z,1003.70
2019-05-03T00:57:29.236Z,1003.72
2019-05-03T00:58:29.214Z,1003.73
2019-05-03T00:59:29.200Z,1003.70
2019-05-03T01:00:29.176Z,1003.72
2019-05-03T01:01:29.157Z,1003.69
2019-05-03T01:02:29.138Z,1003.68
2019-05-03T01:03:29.120Z,1003.68
2019-05-03T01:04:29.101Z,1003.69
2019-05-03T01:05:29.080Z,1003.68
2019-05-03T01:06:29.059Z,1003.71
2019-05-03T01:07:29.042Z,1003.71
2019-05-03T01:08:29.022Z,1003.73
2019-05-03T01:09:29.002Z,1003.73
2019-05-03T01:10:28.982Z,1003.72
2019-05-03T01:11:28.963Z,1003.71
2019-05-03T01:12:28.943Z,1003.69
2019-05-03T01:13:28.930Z,1003.72
2019-05-03T01:14:28.926Z,1003.73
2019-05-03T01:16:28.913Z,1003.76
2019-05-03T01:17:28.886Z,1003.76
2019-05-03T01:18:28.866Z,1003.76
2019-05-03T01:19:28.855Z,1003.77
2019-05-03T01:20:28.834Z,1003.77
2019-05-03T01:21:28.813Z,1003.77
2019-05-03T01:22:51.768Z,1003.79
2019-05-03T01:23:28.769Z,1003.80
2019-05-03T01:24:28.753Z,1003.79
2019-05-03T01:25:32.544Z,1003.82
2019-05-03T01:26:28.712Z,1003.86
2019-05-03T01:27:28.693Z,1003.85
2019-05-03T01:28:49.674Z,1003.80
2019-05-03T01:29:28.657Z,1003.82
2019-05-03T01:30:28.634Z,1003.81
2019-05-03T01:31:28.612Z,1003.80
2019-05-03T01:32:28.596Z,1003.76
2019-05-03T01:33:28.578Z,1003.77
2019-05-03T01:34:49.568Z,1003.74
2019-05-03T01:35:28.536Z,1003.74
2019-05-03T01:36:28.522Z,1003.75
2019-05-03T01:37:28.504Z,1003.74
2019-05-03T01:38:28.480Z,1003.80
2019-05-03T01:39:28.458Z,1003.81
2019-05-03T01:40:49.443Z,1003.83
2019-05-03T01:41:28.424Z,1003.83
2019-05-03T01:42:28.400Z,1003.88
2019-05-03T01:43:28.380Z,1003.87
2019-05-03T01:44:28.366Z,1003.86
2019-05-03T01:45:28.342Z,1003.85
2019-05-03T01:46:49.333Z,1003.79
2019-05-03T01:47:28.306Z,1003.81
2019-05-03T01:48:28.286Z,1003.79
2019-05-03T01:49:28.271Z,1003.80
2019-05-03T01:50:28.247Z,1003.77
2019-05-03T01:51:28.228Z,1003.76
2019-05-03T01:52:49.220Z,1003.78
2019-05-03T01:53:28.192Z,1003.74
2019-05-03T01:54:28.164Z,1003.76
2019-05-03T01:55:28.146Z,1003.78
2019-05-03T01:56:28.131Z,1003.78
2019-05-03T01:57:28.118Z,1003.79
2019-05-03T01:58:49.093Z,1003.85
2019-05-03T01:59:28.069Z,1003.85
2019-05-03T02:00:28.049Z,1003.87
2019-05-03T02:01:28.029Z,1003.88
2019-05-03T02:02:28.009Z,1003.88
2019-05-03T02:03:27.991Z,1003.86
2019-05-03T02:04:48.974Z,1003.89
2019-05-03T02:05:27.949Z,1003.90
2019-05-03T02:06:27.932Z,1003.92
2019-05-03T02:07:27.914Z,1003.96
2019-05-03T02:08:27.898Z,1004.01
2019-05-03T02:09:27.879Z,1004.00
2019-05-03T02:10:48.862Z,1003.98
2019-05-03T02:11:27.839Z,1003.95
2019-05-03T02:12:27.813Z,1003.97
2019-05-03T02:13:27.799Z,1004.02
2019-05-03T02:14:27.781Z,1004.02
2019-05-03T02:15:27.757Z,1004.06
2019-05-03T02:16:48.740Z,1004.06
2019-05-03T02:17:27.715Z,1004.04
2019-05-03T02:18:27.694Z,1004.04
2019-05-03T02:19:27.676Z,1004.07
2019-05-03T02:20:27.661Z,1004.12
2019-05-03T02:21:27.639Z,1004.13
2019-05-03T02:22:48.623Z,1004.09
2019-05-03T02:23:27.598Z,1004.09
2019-05-03T02:24:27.581Z,1004.11
2019-05-03T02:25:27.557Z,1004.12
2019-05-03T02:26:27.537Z,1004.12
2019-05-03T02:27:27.519Z,1004.12
2019-05-03T02:28:48.507Z,1004.10
2019-05-03T02:29:27.480Z,1004.11
2019-05-03T02:30:27.464Z,1004.14
2019-05-03T02:31:27.452Z,1004.15
2019-05-03T02:32:27.427Z,1004.16
2019-05-03T02:33:27.408Z,1004.18
2019-05-03T02:34:48.391Z,1004.17
2019-05-03T02:35:27.360Z,1004.16
2019-05-03T02:36:27.367Z,1004.16
2019-05-03T02:37:27.341Z,1004.17
2019-05-03T02:38:27.305Z,1004.20
2019-05-03T02:39:27.287Z,1004.20
2019-05-03T02:40:48.270Z,1004.22
2019-05-03T02:41:27.249Z,1004.24
2019-05-03T02:42:27.224Z,1004.22
2019-05-03T02:43:27.209Z,1004.22
2019-05-03T02:44:27.193Z,1004.27
2019-05-03T02:45:27.178Z,1004.26
2019-05-03T02:46:48.150Z,1004.27
2019-05-03T02:47:27.126Z,1004.28
2019-05-03T02:48:27.117Z,1004.30
2019-05-03T02:49:27.091Z,1004.29
2019-05-03T02:50:27.068Z,1004.28
2019-05-03T02:51:27.047Z,1004.26
2019-05-03T02:52:48.036Z,1004.29
2019-05-03T02:53:27.012Z,1004.31
2019-05-03T02:54:27.320Z,1004.30
2019-05-03T02:55:26.971Z,1004.31
2019-05-03T02:56:26.952Z,1004.30
2019-05-03T02:57:26.926Z,1004.30
2019-05-03T02:58:47.921Z,1004.24
2019-05-03T02:59:26.894Z,1004.29
2019-05-03T03:00:26.869Z,1004.28
2019-05-03T03:01:26.913Z,1004.27
2019-05-03T03:02:26.830Z,1004.30
2019-05-03T03:03:26.820Z,1004.31
2019-05-03T03:04:47.810Z,1004.26
2019-05-03T03:05:26.774Z,1004.29
2019-05-03T03:06:27.048Z,1004.27
2019-05-03T03:07:26.737Z,1004.29
2019-05-03T03:08:26.716Z,1004.29
2019-05-03T03:09:26.691Z,1004.32
2019-05-03T03:10:47.678Z,1004.29
2019-05-03T03:11:26.653Z,1004.30
2019-05-03T03:12:26.634Z,1004.32
2019-05-03T03:13:26.608Z,1004.30
2019-05-03T03:14:26.591Z,1004.33
2019-05-03T03:15:26.605Z,1004.36
2019-05-03T03:16:47.559Z,1004.35
2019-05-03T03:17:26.540Z,1004.34
2019-05-03T03:18:26.515Z,1004.33
2019-05-03T03:19:26.488Z,1004.38
2019-05-03T03:20:26.474Z,1004.39
2019-05-03T03:21:26.469Z,1004.38
2019-05-03T03:22:47.433Z,1004.39
2019-05-03T03:23:26.555Z,1004.40
2019-05-03T03:24:26.389Z,1004.43
2019-05-03T03:25:26.391Z,1004.42
2019-05-03T03:26:37.537Z,1004.42
2019-05-03T03:27:26.337Z,1004.45
2019-05-03T03:28:47.327Z,1004.41
2019-05-03T03:29:26.301Z,1004.43
2019-05-03T03:30:28.922Z,1004.41
2019-05-03T03:31:28.259Z,1004.45
2019-05-03T03:32:29.197Z,1004.44
2019-05-03T03:33:28.150Z,1004.45
2019-05-03T03:34:54.600Z,1004.46
2019-05-03T03:35:29.968Z,1004.44
2019-05-03T03:36:48.601Z,1004.46
2019-05-03T03:37:26.206Z,1004.47
2019-05-03T03:38:26.321Z,1004.47
2019-05-03T03:39:26.426Z,1004.48
2019-05-03T03:40:47.079Z,1004.47
2019-05-03T03:41:26.057Z,1004.49
2019-05-03T03:42:26.046Z,1004.47
2019-05-03T03:43:26.127Z,1004.52
2019-05-03T03:44:26.008Z,1004.51
2019-05-03T03:45:25.975Z,1004.56
2019-05-03T03:46:46.965Z,1004.54
2019-05-03T03:47:27.285Z,1004.55
2019-05-03T03:48:26.516Z,1004.56
2019-05-03T03:49:26.395Z,1004.59
2019-05-03T03:50:26.147Z,1004.61
2019-05-03T03:51:26.485Z,1004.64
2019-05-03T03:52:46.841Z,1004.65
2019-05-03T03:53:26.556Z,1004.63
2019-05-03T03:54:26.139Z,1004.65
2019-05-03T03:55:26.570Z,1004.67
2019-05-03T03:56:25.768Z,1004.68
2019-05-03T03:57:25.983Z,1004.74
2019-05-03T03:58:46.717Z,1004.71
2019-05-03T03:59:26.595Z,1004.75
2019-05-03T04:00:26.016Z,1004.76
2019-05-03T04:01:26.669Z,1004.78
2019-05-03T04:02:26.387Z,1004.82
2019-05-03T04:03:26.246Z,1004.84
2019-05-03T04:04:46.601Z,1004.87
2019-05-03T04:05:25.792Z,1004.83
2019-05-03T04:06:26.840Z,1004.92
2019-05-03T04:07:26.174Z,1004.90
2019-05-03T04:08:25.518Z,1004.92
2019-05-03T04:09:25.949Z,1004.94
2019-05-03T04:10:46.579Z,1004.94
2019-05-03T04:11:25.974Z,1005.02
2019-05-03T04:12:26.502Z,1005.00
2019-05-03T04:13:25.720Z,1005.05
2019-05-03T04:14:25.559Z,1005.06
2019-05-03T04:15:26.207Z,1005.04
2019-05-03T04:16:46.362Z,1005.04
2019-05-03T04:17:26.139Z,1005.08
2019-05-03T04:18:25.696Z,1005.07
2019-05-03T04:19:25.304Z,1005.09
2019-05-03T04:20:25.858Z,1005.10
2019-05-03T04:21:25.725Z,1005.07
2019-05-03T04:22:46.241Z,1005.05
2019-05-03T04:23:26.395Z,1005.05
2019-05-03T04:24:25.867Z,1005.09
2019-05-03T04:25:26.282Z,1005.05
2019-05-03T04:26:29.580Z,1005.03
2019-05-03T04:27:27.600Z,1005.04
2019-05-03T04:28:46.129Z,1005.11
2019-05-03T04:29:25.481Z,1005.07
2019-05-03T04:30:25.696Z,1005.08
2019-05-03T04:31:26.192Z,1005.11
2019-05-03T04:32:28.762Z,1005.08
2019-05-03T04:33:26.962Z,1005.11
2019-05-03T04:34:46.003Z,1005.11
2019-05-03T04:35:26.556Z,1005.11
2019-05-03T04:36:26.221Z,1005.10
2019-05-03T04:37:26.628Z,1005.13
2019-05-03T04:38:25.786Z,1005.13
2019-05-03T04:39:25.600Z,1005.12
2019-05-03T04:40:45.897Z,1005.13
2019-05-03T04:41:26.983Z,1005.16
2019-05-03T04:42:25.627Z,1005.18
2019-05-03T04:43:26.391Z,1005.17
2019-05-03T04:44:25.997Z,1005.22
2019-05-03T04:45:25.543Z,1005.25
2019-05-03T04:46:46.525Z,1005.28
2019-05-03T04:47:26.305Z,1005.28
2019-05-03T04:48:25.327Z,1005.29
2019-05-03T04:49:26.242Z,1005.30
2019-05-03T04:50:25.455Z,1005.27
2019-05-03T04:51:25.814Z,1005.30
2019-05-03T04:52:46.395Z,1005.33
2019-05-03T04:53:25.956Z,1005.34
2019-05-03T04:54:25.370Z,1005.35
2019-05-03T04:55:26.590Z,1005.35
2019-05-03T04:56:25.920Z,1005.37
2019-05-03T04:57:36.691Z,1005.39
2019-05-03T04:58:45.935Z,1005.39
2019-05-03T04:59:25.425Z,1005.40
2019-05-03T05:00:25.684Z,1005.41
2019-05-03T05:01:26.122Z,1005.44
2019-05-03T05:02:26.353Z,1005.48
2019-05-03T05:03:26.480Z,1005.48
2019-05-03T05:04:46.714Z,1005.48
2019-05-03T05:05:26.189Z,1005.50
2019-05-03T05:06:25.818Z,1005.48
2019-05-03T05:07:26.192Z,1005.53
2019-05-03T05:08:25.451Z,1005.56
2019-05-03T05:09:25.898Z,1005.57
2019-05-03T05:10:46.556Z,1005.61
2019-05-03T05:11:26.341Z,1005.60
2019-05-03T05:12:25.440Z,1005.57
2019-05-03T05:13:25.204Z,1005.63
2019-05-03T05:14:25.845Z,1005.58
2019-05-03T05:15:26.458Z,1005.63
2019-05-03T05:16:46.520Z,1005.65
2019-05-03T05:17:26.293Z,1005.61
2019-05-03T05:18:26.357Z,1005.65
2019-05-03T05:19:25.482Z,1005.68
2019-05-03T05:20:25.640Z,1005.73
2019-05-03T05:21:32.969Z,1005.68
2019-05-03T05:23:17.845Z,1005.73
2019-05-03T05:24:17.618Z,1005.71
2019-05-03T05:26:11.034Z,1005.74
2019-05-03T05:27:10.672Z,1005.74
2019-05-03T05:29:05.338Z,1005.75
2019-05-03T05:30:04.603Z,1005.73
2019-05-03T05:31:57.611Z,1005.74
2019-05-03T05:32:57.343Z,1005.74
2019-05-03T05:34:50.942Z,1005.75
2019-05-03T05:35:51.006Z,1005.75
2019-05-03T05:36:51.211Z,1005.78
2019-05-03T05:37:50.586Z,1005.79
2019-05-03T05:38:50.582Z,1005.74
2019-05-03T05:39:50.578Z,1005.80
2019-05-03T05:40:50.815Z,1005.76
2019-05-03T05:41:50.855Z,1005.74
2019-05-03T05:42:50.757Z,1005.74
2019-05-03T05:43:50.764Z,1005.73
2019-05-03T05:44:50.742Z,1005.75
2019-05-03T05:45:50.464Z,1005.76
2019-05-03T05:46:50.669Z,1005.76
2019-05-03T05:47:50.387Z,1005.77
2019-05-03T05:48:50.377Z,1005.77
2019-05-03T05:49:50.347Z,1005.80
2019-05-03T05:50:50.327Z,1005.79
2019-05-03T05:51:50.308Z,1005.79
2019-05-03T05:52:50.288Z,1005.81
2019-05-03T05:53:50.268Z,1005.82
2019-05-03T05:54:50.246Z,1005.82
2019-05-03T05:55:50.229Z,1005.83
2019-05-03T05:56:50.210Z,1005.81
2019-05-03T05:58:01.985Z,1005.84
2019-05-03T05:58:50.167Z,1005.85
2019-05-03T05:59:50.155Z,1005.81
2019-05-03T06:00:50.128Z,1005.78
2019-05-03T06:01:50.128Z,1005.78
2019-05-03T06:02:50.094Z,1005.74
2019-05-03T06:03:50.067Z,1005.82
2019-05-03T06:04:50.049Z,1005.80
2019-05-03T06:05:50.027Z,1005.80
2019-05-03T06:06:50.010Z,1005.84
2019-05-03T06:07:49.987Z,1005.84
2019-05-03T06:08:49.968Z,1005.80
2019-05-03T06:09:49.949Z,1005.85
2019-05-03T06:10:49.926Z,1005.87
2019-05-03T06:11:49.908Z,1005.91
2019-05-03T06:12:49.889Z,1005.90
2019-05-03T06:13:49.871Z,1005.91
2019-05-03T06:14:49.849Z,1005.92
2019-05-03T06:15:49.829Z,1005.90
2019-05-03T06:16:49.812Z,1005.90
2019-05-03T06:17:49.794Z,1005.96
2019-05-03T06:18:49.769Z,1005.94
2019-05-03T06:19:49.750Z,1005.94
2019-05-03T06:20:49.735Z,1005.97
2019-05-03T06:21:49.711Z,1005.99
2019-05-03T06:22:49.688Z,1005.93
2019-05-03T06:23:49.671Z,1005.97
2019-05-03T06:24:49.655Z,1005.97
2019-05-03T06:25:49.629Z,1005.95
2019-05-03T06:26:49.609Z,1005.98
2019-05-03T06:27:49.588Z,1006.00
2019-05-03T06:28:49.570Z,1005.97
2019-05-03T06:29:49.573Z,1005.96
2019-05-03T06:30:49.528Z,1005.97
2019-05-03T06:31:49.508Z,1005.97
2019-05-03T06:32:49.490Z,1005.94
2019-05-03T06:33:52.325Z,1005.93
2019-05-03T06:34:49.452Z,1005.95
2019-05-03T06:35:49.431Z,1005.96
2019-05-03T06:36:51.418Z,1005.95
2019-05-03T06:37:49.391Z,1005.94
2019-05-03T06:38:49.373Z,1005.93
2019-05-03T06:39:49.355Z,1005.94
2019-05-03T06:40:49.332Z,1005.96
2019-05-03T06:41:49.310Z,1005.97
2019-05-03T06:42:54.608Z,1005.99
2019-05-03T06:43:49.272Z,1005.98
2019-05-03T06:44:49.254Z,1006.01
2019-05-03T06:45:50.542Z,1005.92
2019-05-03T06:46:49.217Z,1005.99
2019-05-03T06:47:50.097Z,1005.96
2019-05-03T06:48:49.178Z,1005.99
2019-05-03T06:49:49.153Z,1006.01
2019-05-03T06:50:49.133Z,1005.98
2019-05-03T06:51:49.942Z,1005.97
2019-05-03T06:52:49.094Z,1005.95
2019-05-03T06:53:50.620Z,1005.96
2019-05-03T06:54:49.053Z,1005.96
2019-05-03T06:55:49.034Z,1006.00
2019-05-03T06:56:49.034Z,1006.02
2019-05-03T06:57:49.663Z,1005.97
2019-05-03T06:58:48.978Z,1006.05
2019-05-03T06:59:48.957Z,1005.98
2019-05-03T07:00:48.941Z,1005.99
2019-05-03T07:01:48.915Z,1005.97
2019-05-03T07:02:48.920Z,1005.99
2019-05-03T07:03:48.876Z,1005.98
2019-05-03T07:04:48.859Z,1006.00
2019-05-03T07:05:48.842Z,1006.04
2019-05-03T07:06:48.817Z,1006.02
2019-05-03T07:07:48.805Z,1005.97
2019-05-03T07:08:48.779Z,1006.02
2019-05-03T07:09:48.757Z,1006.07
2019-05-03T07:10:48.770Z,1005.99
2019-05-03T07:11:48.719Z,1006.02
2019-05-03T07:12:48.699Z,1006.07
2019-05-03T07:13:48.678Z,1006.06
2019-05-03T07:14:50.464Z,1006.09
2019-05-03T07:15:48.640Z,1006.09
2019-05-03T07:16:48.625Z,1006.10
2019-05-03T07:17:48.600Z,1006.08
2019-05-03T07:18:48.640Z,1006.11
2019-05-03T07:19:48.562Z,1006.08
2019-05-03T07:20:48.543Z,1006.12
2019-05-03T07:21:48.525Z,1006.09
2019-05-03T07:22:48.505Z,1006.08
2019-05-03T07:23:48.486Z,1006.06
2019-05-03T07:24:48.470Z,1006.08
2019-05-03T07:25:48.445Z,1006.06
2019-05-03T07:26:48.428Z,1006.10
2019-05-03T07:27:48.410Z,1006.08
2019-05-03T07:28:50.055Z,1006.07
2019-05-03T07:29:48.370Z,1006.12
2019-05-03T07:30:48.352Z,1006.10
2019-05-03T07:31:48.331Z,1006.12
2019-05-03T07:32:48.309Z,1006.09
2019-05-03T07:33:48.302Z,1006.09
2019-05-03T07:34:48.272Z,1006.09
2019-05-03T07:35:48.257Z,1006.06
2019-05-03T07:36:48.239Z,1006.06
2019-05-03T07:37:48.211Z,1006.07
2019-05-03T07:38:48.194Z,1006.01
2019-05-03T07:39:48.174Z,1006.01
2019-05-03T07:40:48.161Z,1006.03
2019-05-03T07:41:48.135Z,1006.02
2019-05-03T07:42:48.117Z,1006.04
2019-05-03T07:43:48.104Z,1005.97
2019-05-03T07:44:48.078Z,1006.02
2019-05-03T07:45:48.058Z,1006.02
2019-05-03T07:46:48.038Z,1006.02
2019-05-03T07:47:48.020Z,1006.04
2019-05-03T07:48:48.000Z,1006.04
2019-05-03T07:49:47.979Z,1006.03
2019-05-03T07:50:47.959Z,1006.04
2019-05-03T07:51:47.952Z,1006.04
2019-05-03T07:52:47.923Z,1006.03
2019-05-03T07:53:47.905Z,1006.07
2019-05-03T07:54:47.884Z,1006.10
2019-05-03T07:55:47.864Z,1006.08
2019-05-03T07:56:47.848Z,1006.08
2019-05-03T07:57:47.858Z,1006.07
2019-05-03T07:58:59.417Z,1006.07
2019-05-03T07:59:47.786Z,1006.10
2019-05-03T08:00:47.779Z,1006.09
2019-05-03T08:01:47.747Z,1006.09
2019-05-03T08:02:47.731Z,1006.12
2019-05-03T08:03:47.720Z,1006.10
2019-05-03T08:04:47.693Z,1006.11
2019-05-03T08:05:47.676Z,1006.13
2019-05-03T08:06:47.651Z,1006.13
2019-05-03T08:07:47.633Z,1006.12
2019-05-03T08:08:47.613Z,1006.13
2019-05-03T08:09:47.605Z,1006.10
2019-05-03T08:10:47.579Z,1006.13
2019-05-03T08:11:47.568Z,1006.12
2019-05-03T08:12:47.551Z,1006.14
2019-05-03T08:13:47.530Z,1006.16
2019-05-03T08:14:47.498Z,1006.15
2019-05-03T08:15:47.478Z,1006.11
2019-05-03T08:16:47.464Z,1006.12
2019-05-03T08:17:47.437Z,1006.08
2019-05-03T08:18:47.430Z,1006.12
2019-05-03T08:19:47.400Z,1006.16
2019-05-03T08:20:47.383Z,1006.13
2019-05-03T08:21:47.361Z,1006.10
2019-05-03T08:22:47.347Z,1006.10
2019-05-03T08:23:47.337Z,1006.08
2019-05-03T08:24:47.303Z,1006.09
2019-05-03T08:25:47.285Z,1006.08
2019-05-03T08:26:47.266Z,1006.09
2019-05-03T08:27:47.249Z,1006.07
2019-05-03T08:28:47.237Z,1006.04
2019-05-03T08:29:47.207Z,1006.10
2019-05-03T08:30:47.187Z,1006.07
2019-05-03T08:31:47.176Z,1006.09
2019-05-03T08:32:47.150Z,1006.09
2019-05-03T08:33:47.131Z,1006.11
2019-05-03T08:34:47.110Z,1006.11
2019-05-03T08:35:47.094Z,1006.04
2019-05-03T08:36:47.072Z,1006.09
2019-05-03T08:37:47.065Z,1006.10
2019-05-03T08:38:47.046Z,1006.05
2019-05-03T08:39:47.016Z,1006.03
2019-05-03T08:40:46.996Z,1006.14
2019-05-03T08:41:46.976Z,1006.08
2019-05-03T08:42:46.956Z,1006.08
2019-05-03T08:43:46.938Z,1006.07
2019-05-03T08:44:46.928Z,1006.05
2019-05-03T08:45:46.898Z,1006.07
2019-05-03T08:46:47.301Z,1006.08
2019-05-03T08:47:46.863Z,1006.04
2019-05-03T08:48:46.845Z,1006.04
2019-05-03T08:49:46.830Z,1006.00
2019-05-03T08:50:46.804Z,1006.01
2019-05-03T08:51:46.786Z,1006.01
2019-05-03T08:52:46.769Z,1005.99
2019-05-03T08:53:46.750Z,1006.05
2019-05-03T08:54:46.734Z,1006.03
2019-05-03T08:55:46.721Z,1006.02
2019-05-03T08:56:46.692Z,1006.10
2019-05-03T08:57:46.672Z,1006.06
2019-05-03T08:58:46.651Z,1006.05
2019-05-03T08:59:46.637Z,1006.06
2019-05-03T09:00:46.617Z,1006.11
2019-05-03T09:01:46.596Z,1006.12
2019-05-03T09:02:46.579Z,1006.09
2019-05-03T09:03:46.561Z,1006.17
2019-05-03T09:04:46.540Z,1006.13
2019-05-03T09:05:46.640Z,1006.13
2019-05-03T09:06:46.502Z,1006.12
2019-05-03T09:07:46.484Z,1006.15
2019-05-03T09:08:46.482Z,1006.10
2019-05-03T09:09:46.444Z,1006.12
2019-05-03T09:10:46.427Z,1006.11
2019-05-03T09:11:46.408Z,1006.08
2019-05-03T09:15:50.839Z,1006.12
2019-05-03T09:16:50.781Z,1006.09
2019-05-03T09:18:50.252Z,1006.05
2019-05-03T09:20:57.893Z,1006.10
2019-05-03T09:21:57.813Z,1006.12
2019-05-03T09:23:52.278Z,1006.08
2019-05-03T09:24:52.137Z,1006.10
2019-05-03T09:26:45.495Z,1006.03
2019-05-03T09:27:45.495Z,1006.04
2019-05-03T09:29:43.073Z,1006.07
2019-05-03T09:30:39.567Z,1006.11
2019-05-03T09:32:35.029Z,1006.08
2019-05-03T09:33:35.676Z,1006.06
2019-05-03T09:35:32.798Z,1006.05
2019-05-03T09:36:27.195Z,1006.02
2019-05-03T09:38:20.844Z,1006.07
2019-05-03T09:39:20.784Z,1006.00
2019-05-03T09:41:15.016Z,1006.02
2019-05-03T09:42:15.410Z,1005.96
2019-05-03T09:44:07.563Z,1005.98
2019-05-03T09:45:07.411Z,1005.95
2019-05-03T09:47:00.914Z,1005.92
2019-05-03T09:48:00.843Z,1005.95
2019-05-03T09:49:55.691Z,1005.93
2019-05-03T09:50:55.607Z,1005.95
2019-05-03T09:52:47.369Z,1006.00
2019-05-03T09:53:47.139Z,1006.00
2019-05-03T09:55:40.810Z,1006.00
2019-05-03T09:56:53.365Z,1006.03
2019-05-03T09:58:36.452Z,1005.96
2019-05-03T09:59:35.013Z,1005.94
2019-05-03T10:01:27.315Z,1005.95
2019-05-03T10:02:27.119Z,1005.94
2019-05-03T10:04:20.664Z,1005.88
2019-05-03T10:05:20.460Z,1005.85
2019-05-03T10:07:15.307Z,1005.82
2019-05-03T10:08:15.779Z,1005.80
2019-05-03T10:10:07.313Z,1005.75
2019-05-03T10:11:07.131Z,1005.77
2019-05-03T10:13:00.628Z,1005.73
2019-05-03T10:14:00.424Z,1005.76
2019-05-03T10:15:54.915Z,1005.78
2019-05-03T10:16:54.743Z,1005.79
2019-05-03T10:18:47.496Z,1005.79
2019-05-03T10:19:47.123Z,1005.88
2019-05-03T10:21:40.518Z,1005.79
2019-05-03T10:22:40.399Z,1005.82
2019-05-03T10:24:35.107Z,1005.79
2019-05-03T10:25:35.713Z,1005.79
2019-05-03T10:27:27.243Z,1005.79
2019-05-03T10:28:27.050Z,1005.79
2019-05-03T10:30:21.637Z,1005.86
2019-05-03T10:31:21.385Z,1005.83
2019-05-03T10:33:17.035Z,1005.81
2019-05-03T10:34:16.707Z,1005.85
2019-05-03T10:35:16.691Z,1005.90
2019-05-03T10:36:16.676Z,1005.81
2019-05-03T10:37:16.654Z,1005.82
2019-05-03T10:38:16.634Z,1005.84
2019-05-03T10:39:16.623Z,1005.83
2019-05-03T10:40:16.663Z,1005.87
2019-05-03T10:41:16.637Z,1005.85
2019-05-03T10:42:16.561Z,1005.85
2019-05-03T10:43:16.545Z,1005.89
2019-05-03T10:44:16.561Z,1005.78
2019-05-03T10:45:16.512Z,1005.84
2019-05-03T10:46:16.500Z,1005.78
2019-05-03T10:47:16.696Z,1005.75
2019-05-03T10:48:16.451Z,1005.72
2019-05-03T10:49:16.433Z,1005.73
2019-05-03T10:50:16.422Z,1005.77
2019-05-03T10:51:16.396Z,1005.65
2019-05-03T10:52:16.380Z,1005.66
2019-05-03T10:53:16.362Z,1005.68
2019-05-03T10:54:16.343Z,1005.68
2019-05-03T10:55:16.327Z,1005.64
2019-05-03T10:56:22.689Z,1005.66
2019-05-03T10:57:16.292Z,1005.69
2019-05-03T10:58:16.277Z,1005.65
2019-05-03T10:59:16.254Z,1005.66
2019-05-03T11:00:41.569Z,1005.64
2019-05-03T11:01:16.220Z,1005.61
2019-05-03T11:02:16.198Z,1005.66
2019-05-03T11:03:16.183Z,1005.66
2019-05-03T11:04:16.196Z,1005.70
2019-05-03T11:05:16.162Z,1005.71
2019-05-03T11:06:16.129Z,1005.70
2019-05-03T11:07:16.113Z,1005.69
2019-05-03T11:08:16.094Z,1005.68
2019-05-03T11:09:16.081Z,1005.69
2019-05-03T11:10:16.059Z,1005.66
2019-05-03T11:11:16.044Z,1005.66
2019-05-03T11:12:16.028Z,1005.70
2019-05-03T11:13:16.013Z,1005.63
2019-05-03T11:14:15.988Z,1005.71
2019-05-03T11:15:15.970Z,1005.67
2019-05-03T11:16:15.952Z,1005.64
2019-05-03T11:17:15.933Z,1005.61
2019-05-03T11:18:15.916Z,1005.61
2019-05-03T11:19:15.904Z,1005.60
2019-05-03T11:20:28.257Z,1005.61
2019-05-03T11:21:27.870Z,1005.64
2019-05-03T11:22:15.848Z,1005.56
2019-05-03T11:23:15.829Z,1005.63
2019-05-03T11:24:15.812Z,1005.62
2019-05-03T11:25:15.793Z,1005.68
2019-05-03T11:26:15.777Z,1005.66
2019-05-03T11:27:15.758Z,1005.63
2019-05-03T11:28:15.750Z,1005.66
2019-05-03T11:29:15.979Z,1005.64
2019-05-03T11:30:15.833Z,1005.67
2019-05-03T11:31:15.687Z,1005.64
2019-05-03T11:32:15.693Z,1005.65
2019-05-03T11:33:15.653Z,1005.61
2019-05-03T11:34:15.639Z,1005.55
2019-05-03T11:35:15.620Z,1005.56
2019-05-03T11:36:15.601Z,1005.60
2019-05-03T11:37:15.584Z,1005.57
2019-05-03T11:38:15.567Z,1005.56
2019-05-03T11:39:15.553Z,1005.56
2019-05-03T11:40:15.822Z,1005.54
2019-05-03T11:41:28.830Z,1005.57
2019-05-03T11:42:18.457Z,1005.51
2019-05-03T11:43:15.479Z,1005.56
2019-05-03T11:44:15.463Z,1005.59
2019-05-03T11:45:15.447Z,1005.49
2019-05-03T11:46:15.428Z,1005.53
2019-05-03T11:47:15.412Z,1005.52
2019-05-03T11:48:15.394Z,1005.55
2019-05-03T11:49:15.377Z,1005.52
2019-05-03T11:50:15.365Z,1005.51
2019-05-03T11:51:15.371Z,1005.56
2019-05-03T11:52:16.019Z,1005.57
2019-05-03T11:53:15.313Z,1005.53
2019-05-03T11:54:16.610Z,1005.50
2019-05-03T11:55:15.920Z,1005.55
2019-05-03T11:56:15.261Z,1005.48
2019-05-03T11:57:15.791Z,1005.43
2019-05-03T11:58:15.232Z,1005.41
2019-05-03T11:59:15.211Z,1005.40
2019-05-03T12:00:15.201Z,1005.45
2019-05-03T12:01:17.036Z,1005.44
2019-05-03T12:02:15.411Z,1005.46
2019-05-03T12:03:15.563Z,1005.45
2019-05-03T12:04:15.392Z,1005.44
2019-05-03T12:05:15.191Z,1005.42
2019-05-03T12:06:15.633Z,1005.48
2019-05-03T12:07:15.999Z,1005.43
2019-05-03T12:08:15.071Z,1005.39
2019-05-03T12:09:15.530Z,1005.40
2019-05-03T12:10:30.707Z,1005.35
2019-05-03T12:11:15.230Z,1005.35
2019-05-03T12:12:15.226Z,1005.31
2019-05-03T12:13:15.791Z,1005.34
2019-05-03T12:14:15.587Z,1005.35
2019-05-03T12:15:15.160Z,1005.32
2019-05-03T12:16:22.316Z,1005.35
2019-05-03T12:17:21.072Z,1005.33
2019-05-03T12:18:16.233Z,1005.32
2019-05-03T12:19:19.799Z,1005.36
2019-05-03T12:20:18.197Z,1005.36
2019-05-03T12:21:18.078Z,1005.35
2019-05-03T12:22:16.578Z,1005.35
2019-05-03T12:23:16.323Z,1005.40
2019-05-03T12:24:15.902Z,1005.32
2019-05-03T12:25:16.733Z,1005.26
2019-05-03T12:26:17.494Z,1005.26
2019-05-03T12:27:15.055Z,1005.21
2019-05-03T12:28:15.287Z,1005.20
2019-05-03T12:29:15.331Z,1005.15
2019-05-03T12:30:15.322Z,1005.19
2019-05-03T12:31:29.721Z,1005.17
2019-05-03T12:32:14.731Z,1005.17
2019-05-03T12:33:15.378Z,1005.15
2019-05-03T12:34:15.942Z,1005.22
2019-05-03T12:35:15.319Z,1005.19
2019-05-03T12:36:15.397Z,1005.24
2019-05-03T12:37:15.499Z,1005.23
2019-05-03T12:38:16.501Z,1005.22